»·PEaware :: N130F KBUR-KSAN

N130F :: KBUR-KSAN

FLIGHT INFORMATION

Flight Status: Arrived
Operator: Privately registered:
United States
More flights under this callsign
Pilot: David J. (24489)
Aircraft: PIPER PA-24 COMMANCHE
(PA24)
More flights by this aircraft type
Origin: KBUR Bob Hope-Burbank
United States
Destination: KSAN San Diego Intl-Lindbergh
United States
More flights between these airports :: More routes between these airports
Route: ELMOO9 ELMOO V186 HAILE V66 MZB
File this flight plan on PilotEdge
Remarks:
Altitude:
(Current/Filed)
0ft
Speed:
(Current/Filed)
0kts
Departed: 02-Aug-20 08:22 PM
Arrived: 02-Aug-20 09:18 PM
Distance/Time
Traveled:
106nm/0:56
Distance/Time
To Go:
Arrived

Flight Plot

Page will automatically refresh every two minutes.

Flight plan parsing failed; only flown route is shown


Map Options




Map Legend


Flown Route
Filed Route
Departure Airport
Arrival Airport
Navaid (VOR, NDB)
Fix

Horizontal Profiles

Position Reports

Time Latitude Longitude Heading Altitude Ground
Speed
02-Aug-20 20:09 34.195990 -118.365612 67 724ft 0kts
02-Aug-20 20:10 34.195990 -118.365612 67 724ft 0kts
02-Aug-20 20:10 34.195990 -118.365612 67 724ft 0kts
02-Aug-20 20:11 34.195990 -118.365612 67 724ft 0kts
02-Aug-20 20:13 34.195992 -118.365607 67 724ft 0kts
02-Aug-20 20:13 34.195993 -118.365603 67 724ft 0kts
02-Aug-20 20:14 34.195995 -118.365598 67 724ft 0kts
02-Aug-20 20:15 34.195997 -118.365592 67 724ft 0kts
02-Aug-20 20:16 34.196852 -118.363740 90 724ft 8kts
02-Aug-20 20:17 34.196791 -118.359544 91 724ft 16kts
02-Aug-20 20:18 34.200671 -118.358377 349 724ft 26kts
02-Aug-20 20:19 34.206749 -118.360060 348 724ft 22kts
02-Aug-20 20:20 34.211865 -118.361329 9 724ft 0kts
02-Aug-20 20:21 34.209667 -118.359616 165 724ft 64kts
02-Aug-20 20:22 34.183443 -118.346713 122 1546ft 116kts
02-Aug-20 20:23 34.167714 -118.311825 113 2778ft 122kts
02-Aug-20 20:24 34.156430 -118.272975 109 4040ft 119kts
02-Aug-20 20:25 34.145902 -118.238678 108 4927ft 125kts
02-Aug-20 20:26 34.131641 -118.191024 106 4994ft 166kts
02-Aug-20 20:27 34.116582 -118.144725 110 6015ft 128kts
02-Aug-20 20:28 34.105050 -118.108394 106 6953ft 124kts
02-Aug-20 20:29 34.092568 -118.068059 103 7586ft 133kts
02-Aug-20 20:30 34.091886 -118.012749 86 7007ft 170kts
02-Aug-20 20:31 34.088392 -117.956258 91 7016ft 168kts
02-Aug-20 20:32 34.084998 -117.900322 88 7024ft 166kts
02-Aug-20 20:33 34.081729 -117.844183 89 7032ft 167kts
02-Aug-20 20:34 34.078267 -117.788339 91 7037ft 167kts
02-Aug-20 20:35 34.057139 -117.739116 135 7043ft 171kts
02-Aug-20 20:36 34.024861 -117.703304 131 7053ft 176kts
02-Aug-20 20:37 33.995698 -117.654950 123 7041ft 175kts
02-Aug-20 20:38 33.968175 -117.609601 125 7497ft 152kts
02-Aug-20 20:39 33.945198 -117.572560 124 8420ft 131kts
02-Aug-20 20:40 33.923050 -117.537189 126 9003ft 145kts
02-Aug-20 20:41 33.890949 -117.499912 149 9023ft 168kts
02-Aug-20 20:42 33.848313 -117.472591 148 9018ft 177kts
02-Aug-20 20:43 33.807754 -117.438317 144 9024ft 179kts
02-Aug-20 20:44 33.767348 -117.403669 144 9036ft 179kts
02-Aug-20 20:45 33.727040 -117.368673 146 9042ft 178kts
02-Aug-20 20:46 33.685689 -117.336040 146 9043ft 177kts
02-Aug-20 20:47 33.645557 -117.301285 146 9045ft 177kts
02-Aug-20 20:48 33.604644 -117.267985 146 9047ft 177kts
02-Aug-20 20:49 33.564324 -117.233749 146 9052ft 177kts
02-Aug-20 20:50 33.523626 -117.200338 146 9052ft 177kts
02-Aug-20 20:51 33.482686 -117.166713 150 9051ft 177kts
02-Aug-20 20:52 33.440158 -117.136882 151 9048ft 177kts
02-Aug-20 20:53 33.397402 -117.107136 151 9049ft 177kts
02-Aug-20 20:54 33.354638 -117.077368 150 9049ft 177kts
02-Aug-20 20:55 33.311910 -117.047346 151 9038ft 177kts
02-Aug-20 20:56 33.269368 -117.017536 151 9032ft 177kts
02-Aug-20 20:57 33.226705 -116.987543 151 9023ft 177kts
02-Aug-20 20:58 33.184072 -116.957675 150 9024ft 177kts
02-Aug-20 20:59 33.145350 -116.930345 150 9026ft 177kts
02-Aug-20 21:00 33.102965 -116.900620 151 9031ft 177kts
02-Aug-20 21:01 33.060534 -116.870442 151 9032ft 177kts
02-Aug-20 21:02 33.017900 -116.840429 151 9032ft 178kts
02-Aug-20 21:03 32.972871 -116.824194 189 9036ft 170kts
02-Aug-20 21:04 32.926684 -116.833736 195 9027ft 166kts
02-Aug-20 21:05 32.881110 -116.842746 196 9025ft 165kts
02-Aug-20 21:06 32.835656 -116.851029 194 9024ft 165kts
02-Aug-20 21:07 32.789113 -116.860648 195 8415ft 191kts
02-Aug-20 21:08 32.736651 -116.870100 192 5834ft 138kts
02-Aug-20 21:09 32.694927 -116.878762 193 5245ft 155kts
02-Aug-20 21:10 32.662539 -116.910762 258 4449ft 168kts
02-Aug-20 21:11 32.676880 -116.958612 289 4037ft 150kts
02-Aug-20 21:12 32.688694 -117.005730 285 3502ft 152kts
02-Aug-20 21:13 32.699822 -117.056224 285 2538ft 162kts
02-Aug-20 21:14 32.712894 -117.105417 287 1369ft 142kts
02-Aug-20 21:15 32.722423 -117.143569 282 675ft 83kts
02-Aug-20 21:16 32.728246 -117.168752 281 290ft 81kts
02-Aug-20 21:17 32.733838 -117.190419 314 18ft 15kts
02-Aug-20 21:18 32.734449 -117.188446 105 18ft 18kts
02-Aug-20 21:19 32.732555 -117.180761 98 18ft 22kts
02-Aug-20 21:20 32.734011 -117.178770 289 18ft 4kts
02-Aug-20 21:21 32.734015 -117.178842 261 18ft 0kts
02-Aug-20 21:22 32.734015 -117.178842 261 18ft 0kts

Navigation Log

Ident Type
Flight plan parsing failed, navigation log unavailable